Latest Weather Observations for Blackwater Airport

IDQ60801

Issued at 3:32 pm EST Sunday 7 February 2016 (issued every 30 minutes, with the page automatically refreshed every 10 minutes)

About weather observations | Map of weather stations | Latest weather observations for QLD | Other Formats
Station Details ID: 035134 Name: BLACKWATER AIRPORT Lat: -23.60 Lon: 148.81 Height: 192.95 m
Data from the previous 72 hours. | See also: Recent months at Blackwater Airport
Date/Time
EST
Temp
°C
App
Temp
°C
Dew
Point
Rel
Hum
%
Delta-T
°C
Wind Press
QNH
hPa
Press
MSL
hPa
Rain
since 9 am
mm
Dir
 
Spd
km/h
Gust
km/h
Spd
kts
Gust
kts
07/03:30pm 28.4 29.7 21.7 67 4.5 ENE 17 22 9 12 1009.0 1007.7 0.0
07/03:00pm 29.1 29.9 21.3 62 5.3 ENE 19 26 10 14 1009.0 1007.7 0.0
07/02:30pm 29.1 29.8 21.6 64 5.1 ENE 20 30 11 16 1009.2 1007.9 0.0
07/02:00pm 29.4 29.6 21.4 62 5.4 ENE 22 33 12 18 1009.3 1008.0 0.0
07/01:30pm 28.9 28.5 20.9 62 5.3 ENE 24 37 13 20 1009.5 1008.2 0.0
07/01:00pm 28.7 29.2 21.2 64 5.0 E 20 32 11 17 1009.9 1008.6 0.0
07/12:30pm 28.1 27.8 21.1 65 4.7 E 24 32 13 17 1010.1 1008.8 0.0
07/12:00pm 28.3 27.5 20.8 63 5.0 ENE 26 35 14 19 1010.4 1009.1 0.0
07/11:30am 27.5 26.7 20.1 64 4.9 E 24 32 13 17 1010.6 1009.3 0.0
07/11:00am 27.4 25.9 20.2 65 4.8 E 28 37 15 20 1010.9 1009.6 0.0
07/10:30am 28.0 27.2 20.8 65 4.8 E 26 35 14 19 1010.9 1009.6 0.0
07/10:00am 27.8 26.0 20.4 64 4.9 E 30 43 16 23 1010.8 1009.5 0.0
07/09:30am 26.7 25.7 19.6 65 4.6 E 24 35 13 19 1010.8 1009.5 0.0
07/09:00am 26.5 24.5 19.1 64 4.8 E 28 39 15 21 1010.8 1009.5 3.6
07/08:30am 26.1 25.0 19.5 67 4.3 E 24 41 13 22 1010.5 1009.2 3.6
07/08:00am 25.0 24.3 19.4 71 3.6 ESE 22 35 12 19 1010.4 1009.1 3.6
07/07:30am 25.0 24.6 19.4 71 3.6 E 20 35 11 19 1010.2 1008.9 3.6
07/07:00am 23.4 22.5 19.1 77 2.8 E 22 33 12 18 1010.3 1009.0 3.6
07/06:30am 23.1 23.4 19.5 80 2.3 E 17 24 9 13 1010.0 1008.7 3.6
07/06:00am 22.8 22.0 19.2 80 2.3 E 22 30 12 16 1009.4 1008.1 3.6
07/05:30am 22.8 22.4 19.4 81 2.2 E 20 30 11 16 1009.2 1007.9 3.6
07/05:00am 23.0 22.1 19.8 82 2.1 E 24 35 13 19 1008.8 1007.5 3.6
07/04:30am 22.8 23.7 20.0 84 1.8 E 15 20 8 11 1008.7 1007.4 3.6
07/04:00am 22.7 23.9 20.0 85 1.8 E 13 17 7 9 1008.4 1007.2 3.6
07/03:30am 22.5 22.7 20.2 87 1.5 E 19 24 10 13 1008.0 1006.8 3.6
07/03:00am 22.5 22.6 20.0 86 1.6 E 19 24 10 13 1007.9 1006.7 3.6
07/02:30am 22.7 22.8 20.4 87 1.5 E 20 28 11 15 1007.8 1006.5 3.6
07/02:00am 22.5 22.4 20.8 90 1.1 E 22 32 12 17 1007.9 1006.7 3.6
07/01:30am 22.5 21.8 21.0 91 1.0 E 26 33 14 18 1008.1 1006.9 3.6
07/01:00am 22.7 22.0 21.0 90 1.1 E 26 37 14 20 1008.3 1007.1 3.6
07/12:30am 23.2 24.0 21.3 89 1.3 E 19 28 10 15 1008.8 1007.5 3.6
07/12:00am 23.3 22.9 21.0 87 1.5 E 24 33 13 18 1009.1 1007.8 3.6
 
Date/Time
EST
Temp
°C
App
Temp
°C
Dew
Point
Rel
Hum
%
Delta-T
°C
Wind Press
QNH
hPa
Press
MSL
hPa
Rain
since 9 am
mm
Dir
 
Spd
km/h
Gust
km/h
Spd
kts
Gust
kts
06/11:30pm 23.4 23.7 21.5 89 1.3 E 22 32 12 17 1009.3 1008.0 3.6
06/11:00pm 23.6 23.4 21.3 87 1.5 E 24 35 13 19 1009.5 1008.2 3.6
06/10:30pm 23.5 23.6 21.9 91 1.1 ENE 24 32 13 17 1009.6 1008.3 3.6
06/10:00pm 23.3 24.3 22.1 93 0.8 E 20 30 11 16 1009.6 1008.3 3.4
06/09:30pm 23.2 23.7 22.0 93 0.8 E 22 32 12 17 1009.7 1008.4 3.4
06/09:00pm 23.1 23.6 21.9 93 0.8 E 22 32 12 17 1009.4 1008.1 3.4
06/08:30pm 23.3 23.9 22.1 93 0.8 E 22 30 12 16 1009.0 1007.7 3.4
06/08:00pm 23.2 24.8 22.2 94 0.7 ENE 17 26 9 14 1008.8 1007.5 3.2
06/07:30pm 23.2 23.9 22.2 94 0.7 ENE 22 30 12 16 1008.3 1007.1 3.0
06/07:00pm 23.5 25.8 22.7 95 0.5 E 15 20 8 11 1007.8 1006.5 3.0
06/06:30pm 23.7 25.2 22.7 94 0.7 ENE 19 24 10 13 1007.2 1005.9 1.2
06/06:00pm 23.9 24.9 22.2 90 1.1 NE 20 28 11 15 1006.8 1005.5 0.0
06/05:30pm 25.3 25.0 21.8 81 2.3 ENE 26 37 14 20 1006.0 1004.7 0.0
06/05:00pm 26.4 26.5 21.8 76 3.1 ENE 24 33 13 18 1005.6 1004.3 0.0
06/04:30pm 26.5 26.5 21.7 75 3.2 ENE 24 32 13 17 1005.5 1004.2 0.0
06/04:00pm 27.2 27.5 21.5 71 3.8 ENE 22 33 12 18 1005.5 1004.2 0.0
06/03:30pm 27.1 27.0 21.4 71 3.8 ENE 24 35 13 19 1005.7 1004.4 0.0
06/03:00pm 27.4 26.8 21.2 69 4.2 ENE 26 33 14 18 1005.9 1004.6 0.0
06/02:30pm 27.5 26.6 21.5 70 4.0 ENE 28 35 15 19 1006.1 1004.8 0.0
06/02:00pm 27.7 27.6 21.5 69 4.2 ENE 24 33 13 18 1006.4 1005.1 0.0
06/01:30pm 27.5 27.8 21.5 70 4.0 E 22 30 12 16 1006.6 1005.3 0.0
06/01:00pm 27.1 27.1 20.9 69 4.1 E 22 30 12 16 1006.8 1005.5 0.0
06/12:30pm 27.0 25.2 21.1 70 3.9 E 32 39 17 21 1006.9 1005.6 0.0
06/12:00pm 26.5 26.1 21.0 72 3.7 E 24 32 13 17 1007.3 1006.0 0.0
06/11:30am 26.3 26.2 20.8 71 3.6 E 22 33 12 18 1007.6 1006.3 0.0
06/11:00am 26.0 24.9 20.3 71 3.8 E 26 37 14 20 1007.6 1006.3 0.0
06/10:30am 26.1 24.8 20.7 72 3.6 E 28 39 15 21 1007.6 1006.3 0.0
06/10:00am 26.0 24.4 20.1 70 3.9 E 28 41 15 22 1007.4 1006.1 0.0
06/09:30am 25.4 22.8 19.8 71 3.6 E 33 44 18 24 1007.3 1006.0 0.0
06/09:00am 25.7 23.5 20.3 72 3.6 E 32 46 17 25 1007.2 1005.9 1.6
06/08:30am 25.0 24.0 20.5 76 3.0 E 26 37 14 20 1007.3 1006.0 1.6
06/08:00am 24.5 23.4 20.2 77 2.8 E 26 41 14 22 1007.2 1005.9 1.6
06/07:30am 24.3 23.0 19.8 76 2.9 E 26 37 14 20 1007.1 1005.8 1.6
06/07:00am 24.0 23.8 19.7 77 2.8 E 20 32 11 17 1006.9 1005.6 1.6
06/06:30am 23.5 23.9 19.8 80 2.4 E 17 24 9 13 1006.5 1005.2 1.6
06/06:00am 23.0 22.4 19.8 82 2.1 E 22 33 12 18 1006.1 1004.8 1.6
06/05:30am 23.2 22.6 19.8 81 2.2 E 22 33 12 18 1005.8 1004.5 1.6
06/05:00am 23.4 22.7 19.5 79 2.5 E 22 35 12 19 1005.8 1004.5 1.6
06/04:30am 22.9 23.4 20.1 84 1.8 E 17 24 9 13 1005.6 1004.3 1.4
06/04:00am 22.8 22.4 20.1 85 1.8 E 22 35 12 19 1005.5 1004.2 1.4
06/03:30am 23.6 22.2 19.7 79 2.5 E 26 41 14 22 1005.2 1003.9 1.4
06/03:00am 23.6 23.0 19.7 79 2.5 E 22 32 12 17 1005.2 1003.9 1.4
06/02:30am 23.2 23.0 19.8 81 2.2 E 20 30 11 16 1005.1 1003.8 1.4
06/02:00am 22.9 22.0 19.9 83 1.9 E 24 39 13 21 1005.0 1003.7 1.4
06/01:30am 23.1 22.5 19.7 81 2.2 ESE 22 32 12 17 1005.4 1004.1 1.4
06/01:00am 23.1 22.6 19.9 82 2.1 E 22 32 12 17 1005.5 1004.2 1.4
06/12:30am 22.9 22.9 20.1 84 1.8 E 20 30 11 16 1006.0 1004.7 1.4
06/12:00am 22.8 22.2 20.5 87 1.5 E 24 37 13 20 1006.3 1005.0 1.4
 
Date/Time
EST
Temp
°C
App
Temp
°C
Dew
Point
Rel
Hum
%
Delta-T
°C
Wind Press
QNH
hPa
Press
MSL
hPa
Rain
since 9 am
mm
Dir
 
Spd
km/h
Gust
km/h
Spd
kts
Gust
kts
05/11:30pm 22.8 23.4 21.1 90 1.1 E 19 35 10 19 1006.7 1005.4 1.4
05/11:00pm 22.9 22.5 21.0 89 1.3 E 24 33 13 18 1007.2 1005.9 1.4
05/10:30pm 23.0 22.3 21.1 89 1.3 E 26 43 14 23 1007.5 1006.2 1.4
05/10:00pm 23.3 23.2 21.4 89 1.3 E 24 35 13 19 1007.5 1006.2 1.4
05/09:30pm 23.5 23.4 21.4 88 1.4 E 24 35 13 19 1007.5 1006.2 1.2
05/09:00pm 23.5 23.1 21.6 89 1.3 E 26 35 14 19 1007.4 1006.1 1.2
05/08:30pm 23.6 24.0 21.7 89 1.3 E 22 32 12 17 1007.0 1005.7 1.0
05/08:00pm 24.0 25.0 21.7 87 1.5 E 19 24 10 13 1006.7 1005.4 0.8
05/07:30pm 23.9 24.7 21.4 86 1.7 E 19 30 10 16 1006.2 1004.9 0.6
05/07:00pm 24.0 24.7 21.5 86 1.7 E 20 28 11 15 1005.9 1004.6 0.6
05/06:30pm 24.5 25.1 21.4 83 2.1 ENE 20 24 11 13 1005.5 1004.2 0.4
05/06:00pm 24.8 27.8 21.9 84 1.9 E 9 15 5 8 1005.2 1003.9 0.4
05/05:30pm 24.9 27.9 22.0 84 1.9 SE 9 13 5 7 1004.8 1003.5 0.4
05/05:00pm 24.8 27.3 22.5 87 1.6 SSE 13 17 7 9 1004.1 1002.8 0.4
05/04:30pm 25.7 27.5 21.8 79 2.6 ESE 15 19 8 10 1004.1 1002.8 0.2
05/04:00pm 25.0 26.3 21.7 82 2.2 E 17 24 9 13 1004.1 1002.8 0.2
05/03:30pm 24.9 27.6 22.2 85 1.8 ESE 11 17 6 9 1004.5 1003.2 0.2
05/03:00pm 24.9 26.2 21.6 82 2.2 E 17 24 9 13 1004.6 1003.3 0.2
05/02:30pm 25.7 26.3 21.1 76 3.1 E 19 28 10 15 1004.9 1003.6 0.0
05/02:00pm 25.8 25.2 21.2 76 3.1 E 26 33 14 18 1005.2 1003.9 0.0
05/01:30pm 25.4 26.0 21.3 78 2.7 E 20 30 11 16 1005.4 1004.1 0.0
05/01:00pm 25.9 26.5 21.3 76 3.1 E 20 28 11 15 1005.5 1004.2 0.0
05/12:30pm 25.7 26.7 21.8 79 2.6 E 19 24 10 13 1005.7 1004.4 0.0
05/12:00pm 25.2 25.8 21.3 79 2.6 E 20 28 11 15 1006.0 1004.7 0.0
05/11:30am 24.9 25.5 21.4 81 2.3 E 20 26 11 14 1006.3 1005.0 0.0
05/11:00am 24.7 24.9 21.4 82 2.2 E 22 30 12 16 1006.5 1005.2 0.0
05/10:30am 24.4 24.2 21.3 83 2.1 E 24 32 13 17 1006.6 1005.3 0.0
05/10:00am 24.3 24.2 21.4 84 1.9 E 24 32 13 17 1006.7 1005.4 0.0
05/09:30am 24.1 24.5 21.8 87 1.5 E 22 30 12 16 1006.6 1005.3 0.0
05/09:00am 24.1 24.4 21.6 86 1.7 E 22 32 12 17 1006.3 1005.0 81.2
05/08:30am 24.6 25.3 22.3 87 1.5 E 22 32 12 17 1006.1 1004.8 81.2
05/08:00am 24.6 25.8 22.5 88 1.4 E 20 30 11 16 1005.7 1004.4 81.2
05/07:30am 24.6 26.5 22.8 90 1.2 E 17 24 9 13 1005.1 1003.8 81.2
05/07:00am 24.1 26.4 22.7 92 1.0 E 15 20 8 11 1004.9 1003.6 81.2
05/06:30am 24.1 26.0 22.7 92 0.9 E 17 24 9 13 1004.5 1003.2 81.2
05/06:00am 24.1 28.2 23.2 95 0.6 SE 7 11 4 6 1004.2 1002.9 81.2
05/05:30am 24.3 27.7 23.4 95 0.6 ESE 11 15 6 8 1003.9 1002.6 80.8
05/05:00am 24.6 28.9 23.7 95 0.6 E 7 9 4 5 1003.6 1002.3 80.2
05/04:30am 24.6 28.9 23.7 95 0.6 SE 7 9 4 5 1003.1 1001.8 80.2
05/04:00am 24.8 29.3 23.9 95 0.6 SSE 7 9 4 5 1002.9 1001.6 79.8
05/03:30am 24.7 28.7 23.8 95 0.6 S 9 11 5 6 1002.7 1001.4 79.8
05/03:00am 24.6 30.1 23.4 93 0.8 CALM 0 0 0 0 1002.6 1001.3 79.8
05/02:30am 24.6 30.1 23.4 93 0.8 CALM 0 0 0 0 1003.0 1001.7 79.6
05/02:00am 24.5 29.9 23.8 96 0.5 NW 2 6 1 3 1003.6 1002.3 79.6
05/01:30am 24.4 28.8 23.5 95 0.6 SW 6 7 3 4 1003.9 1002.6 79.6
05/01:00am 24.6 29.1 23.7 95 0.6 SW 6 7 3 4 1004.3 1003.0 79.4
05/12:30am 24.7 29.1 23.8 95 0.6 WSW 7 7 4 4 1004.8 1003.5 79.0
05/12:00am 24.7 30.4 23.8 95 0.6 CALM 0 0 0 0 1005.2 1003.9 78.6
 
Date/Time
EST
Temp
°C
App
Temp
°C
Dew
Point
Rel
Hum
%
Delta-T
°C
Wind Press
QNH
hPa
Press
MSL
hPa
Rain
since 9 am
mm
Dir
 
Spd
km/h
Gust
km/h
Spd
kts
Gust
kts
04/11:30pm 24.8 30.6 23.9 95 0.6 CALM 0 0 0 0 1005.5 1004.2 78.0
04/11:00pm 24.8 30.5 23.8 94 0.7 CALM 0 0 0 0 1005.6 1004.3 77.8
04/10:30pm 24.8 30.6 23.9 95 0.6 CALM 0 0 0 0 1005.6 1004.3 77.8
04/10:00pm 24.8 30.2 23.9 95 0.6 SW 2 6 1 3 1005.6 1004.3 77.8
04/09:30pm 24.8 29.4 24.1 96 0.5 S 7 9 4 5 1005.6 1004.3 77.6
04/09:00pm 24.6 30.4 23.9 96 0.5 CALM 0 0 0 0 1005.5 1004.2 77.2
04/08:30pm 24.5 29.1 23.8 96 0.5 SE 6 7 3 4 1005.5 1004.2 76.6
04/08:00pm 24.1 28.3 23.4 96 0.5 ENE 7 11 4 6 1005.4 1004.1 75.2
04/07:30pm 24.0 26.9 23.1 95 0.6 NW 13 20 7 11 1004.9 1003.6 66.6
04/07:00pm 24.4 26.8 23.7 96 0.5 N 17 20 9 11 1005.2 1003.9 31.0
04/06:30pm 25.6 28.7 23.5 88 1.4 NE 13 20 7 11 1004.1 1002.8 1.2
04/06:00pm 26.7 28.7 23.6 83 2.1 E 19 24 10 13 1002.7 1001.4 0.4
04/05:30pm 26.8 26.7 23.5 82 2.3 SSE 30 39 16 21 1002.0 1000.7 0.0
04/05:26pm 28.3 28.7 23.2 74 3.5 SE 26 39 14 21 1002.0 1000.7 0.0
04/05:00pm 32.5 35.1 22.6 56 6.9 NNW 13 17 7 9 1001.5 1000.2 0.0
04/04:30pm 33.5 38.0 22.3 52 7.7 SW 2 9 1 5 1001.6 1000.3 0.0
04/04:00pm 33.9 38.0 22.3 50 8.0 S 4 11 2 6 1001.1 999.8 0.0

Other Formats:

Comma delimited format used in spreadsheet applications
http://www.bom.gov.au/fwo/IDQ60801/IDQ60801.94398.axf

JavaScript Object Notation format (JSON) in row-major order
http://www.bom.gov.au/fwo/IDQ60801/IDQ60801.94398.json